Hanover, WI (53542)

12:58 AM CST on December 10, 2016 (GMT -0600)
Rock County | | Change Station
Active Advisory: Winter Storm Watch

Elev 807 ft 42.62 °N, 89.04 °W | Updated 23 minutes ago

Overcast
Overcast
19 °F
Feels Like 12 °F
N
6
Wind Variable Wind from West

Today
High -- | Low -- °F
--% Chance of Precip.
Yesterday
High -- | Low -- °F
Precip. -- in
Pressure 30.48 in
Visibility 10.0 miles
Clouds Scattered Clouds 6500 ft
Mostly Cloudy 7000 ft
Overcast 12000 ft
Windchill 12 °F
Dew Point 14 °F
Humidity 80%
Rainfall 0.00 in
Snow Depth Not available.
7:16 AM 4:23 PM
Waxing Gibbous, 81% visible
METAR KJVL 100635Z AUTO 27005KT 10SM SCT065 BKN070 OVC120 M07/M10 A3048 RMK AO2
Pressure 30.48 in
Visibility 10.0 miles
Clouds Scattered Clouds 6500 ft
Mostly Cloudy 7000 ft
Overcast 12000 ft
Windchill 12 °F
Dew Point 14 °F
Humidity 80%
Rainfall 0.00 in
Snow Depth Not available.
7:16 AM 4:23 PM
Waxing Gibbous, 81% visible
METAR KJVL 100635Z AUTO 27005KT 10SM SCT065 BKN070 OVC120 M07/M10 A3048 RMK AO2

10-Day Weather Forecast

Almanac

Astronomy

Dec. 10, 2016 Rise Set
Actual Time
Civil Twilight
Nautical Twilight
Astronomical Twilight
Moon
Length of Visible Light
Length of Day
Tomorrow will be .
, % of the Moon is Illuminated

Today's Extremes

State Highs State Lows

Community

WunderPhotos

Upload Photos

1,956,527 photos uploaded!

WunderBlog® & News

Nearby

Air Quality

  Air Quality AQ Index Pollutant
Not available.

Snow Depth

Station Depth Elevation

Earthquake Activity

City Distance Mag. Time & Date
Minimum magnitude displayed is 2.5.

Coastal Water Temperatures

Place Temperature

Stations

Nearby Weather Stations

Station Location Temp. Windchill Dew Point Humidity Wind Precip. Elev Updated Type
                   

Watches & Warnings

Winter Storm Watch
Issued: 9:24 PM CST Dec. 9, 2016 – National Weather Service

... Winter Storm Watch remains in effect from Saturday afternoon
through Sunday evening...

A Winter Storm Watch remains in effect from Saturday afternoon
through Sunday evening.

* Timing... snow developing later Saturday afternoon and continuing
through Sunday.

* Snow accumulations... 6 to 10 inches.

* Winds... southeast winds 10 to 15 mph with gusts to 20 mph...
turning west later Sunday night into Monday morning.

* Impacts... hazardous travel conditions developing Saturday
night continuing into Sunday. Reduced visibility due to
falling snow and some drifting snow.

Precautionary/preparedness actions...

A Winter Storm Watch means there is a potential for significant
snow... sleet... or ice accumulations that may impact travel.
Continue to monitor the latest forecasts.